MST,Max TemperatureF,Mean TemperatureF,Min TemperatureF,Max Dew PointF,MeanDew PointF,Min DewpointF,Max Humidity, Mean Humidity, Min Humidity, Max Sea Level PressureIn, Mean Sea Level PressureIn, Min Sea Level PressureIn, Max VisibilityMiles, Mean VisibilityMiles, Min VisibilityMiles, Max Wind SpeedMPH, Mean Wind SpeedMPH, Max Gust SpeedMPH,PrecipitationIn, CloudCover, Events, WindDirDegrees
2013-2-1,32,23,14,27,20,10,100,86,64,30.29,30.17,30.11,10,8,1,26,5,33,0.00,4,Snow,294
2013-2-2,32,16,1,21,12,-2,93,79,60,30.41,30.35,30.29,10,10,10,18,6,23,0.00,1,,301
2013-2-3,33,19,5,18,10,3,100,75,44,30.30,30.14,30.04,10,10,10,17,7,9,0.00,0,,299
2013-2-4,33,18,3,23,13,1,100,78,60,30.09,30.05,30.00,10,10,10,18,6,20,0.00,2,,296
2013-2-5,35,24,12,25,18,10,100,84,52,30.09,30.01,29.91,10,10,7,8,3,,0.00,4,,310
2013-2-6,32,19,5,19,11,1,92,77,55,30.13,29.99,29.88,10,10,10,17,7,,0.00,1,,300
2013-2-7,28,12,-5,12,1,-11,92,75,47,30.16,30.08,29.96,10,10,10,12,5,,0.00,0,,304
2013-2-8,28,14,0,25,12,-6,100,79,55,29.95,29.79,29.64,10,9,2,10,6,,0.00,6,Snow,294
2013-2-9,28,18,8,23,17,7,100,85,64,29.69,29.63,29.61,10,9,1,14,5,17,0.00,6,Snow,290
2013-2-10,23,14,5,18,11,3,100,86,63,29.97,29.82,29.69,10,8,2,10,4,,0.00,8,Snow,282
2013-2-11,17,6,-5,10,0,-9,92,75,49,30.00,29.98,29.95,10,10,5,10,7,,0.00,4,Snow,308
2013-2-12,26,8,-9,18,5,-13,92,75,59,30.09,30.05,30.00,10,9,3,38,13,44,0.00,2,,304
2013-2-13,32,24,15,21,18,14,93,78,64,30.10,30.07,30.03,10,10,10,31,14,32,0.00,3,,299
2013-2-14,30,20,10,19,14,9,100,75,47,30.24,30.16,30.05,10,10,10,28,12,33,0.00,2,,298
2013-2-15,32,21,10,18,14,7,92,72,55,30.33,30.29,30.24,10,10,10,29,14,37,0.00,2,,293
2013-2-16,35,22,8,23,16,9,100,79,56,30.33,30.19,29.99,10,10,10,21,10,,0.00,1,,297
2013-2-17,28,16,3,19,10,1,100,78,51,29.99,29.83,29.74,10,10,5,23,9,29,0.00,3,Snow,291
2013-2-18,26,14,1,12,5,-4,92,74,51,30.01,29.98,29.91,10,10,5,13,6,16,0.00,2,,295
2013-2-19,32,15,-2,14,3,-6,85,70,37,29.97,29.80,29.67,10,10,10,9,6,,0.00,3,,297
2013-2-20,35,20,5,18,9,1,92,70,35,29.67,29.63,29.58,10,10,7,10,6,,0.00,3,,300
2013-2-21,30,18,6,18,11,3,100,79,59,29.87,29.77,29.66,10,10,4,17,4,17,0.00,5,Snow,300
2013-2-22,26,14,3,14,8,1,92,73,50,29.93,29.88,29.85,10,10,3,23,10,29,0.00,3,Snow,297
2013-2-23,26,18,10,21,14,9,100,84,68,29.84,29.71,29.61,10,8,1,24,6,31,0.00,7,Snow,289
2013-2-24,28,16,3,12,7,0,85,65,43,30.07,29.95,29.74,10,10,10,20,12,25,0.00,2,,304
2013-2-25,28,17,6,14,8,0,93,66,47,30.05,29.95,29.85,10,10,4,21,8,23,0.00,3,Snow,306
2013-2-26,26,16,5,12,6,0,92,68,47,30.16,29.97,29.85,10,10,10,26,12,33,0.00,2,,302
2013-2-27,28,13,-2,12,4,-8,85,70,51,30.27,30.22,30.17,10,10,10,24,10,29,0.00,1,,296
2013-2-28,30,14,-2,19,9,-8,93,75,59,30.35,30.29,30.25,10,10,10,22,8,25,0.00,2,,299